Sebes, Romania
Current Conditions -  °F | °C
As of 5:30 PM on Thursday 30 Oct 2014 (Local Time) from LRSB Reporting Station
Overcast Overcast  
Wind Chill: 50°   Ceiling: 6000
Heat Index: 50°   Visibility: 6mi
Dew Point: 36°   Wind: 2mph
Humidity: 58%   Direction: 230°SW
Pressure: 30.21"   Gusts: NA
Location:  45.96°N, 23.57°E
Report Text: LRSB 301430Z 23002KT 9999 BKN060 OVC073 10/02 Q1023 NOSIG
Loading
Personal Weather Stations






























Interactive Weather Map
Tropical Storm Tracking
New forecast layout! Learn more

10-Day Weather Forecast

Advertisements
Track Severe Weather on mobile